Time;durP1;ratioP1;P1;durP2;ratioP2;P2;SDS_P1;SDS_P2;PMS_P1;PMS_P2;Temp;Humidity;BMP_temperature;BMP_pressure;BME280_temperature;BME280_humidity;BME280_pressure;Samples;Min_cycle;Max_cycle;Signal;HPM_P1;HPM_P2
2023/06/08 00:00:39;;;;;;;7.88;4.57;;;;;;;17.16;57.96;96383.41;5025596;28;20042;-67
2023/06/08 00:03:05;;;;;;;5.45;4.43;;;;;;;17.12;58.22;96391.78;5022141;28;20045;-66
2023/06/08 00:05:43;;;;;;;6.82;4.55;;;;;;;17.10;58.53;96387.88;5025751;28;20041;-66
2023/06/08 00:08:09;;;;;;;9.55;4.55;;;;;;;17.09;58.38;96387.09;5021120;28;20037;-66
2023/06/08 00:10:34;;;;;;;8.48;4.90;;;;;;;17.13;58.32;96389.81;5026953;28;20052;-66
2023/06/08 00:13:00;;;;;;;7.20;4.78;;;;;;;17.12;58.43;96383.47;5030361;28;20040;-66
2023/06/08 00:15:27;;;;;;;8.95;4.93;;;;;;;17.11;58.34;96384.69;5020970;28;20128;-66
2023/06/08 00:17:52;;;;;;;11.25;4.95;;;;;;;17.05;59.03;96380.03;5023156;28;20364;-66
2023/06/08 00:20:18;;;;;;;6.95;4.50;;;;;;;17.00;59.03;96378.53;5018998;28;20052;-66
2023/06/08 00:22:47;;;;;;;9.60;4.63;;;;;;;16.97;59.76;96376.59;5024615;28;20072;-66
2023/06/08 00:25:13;;;;;;;8.73;4.85;;;;;;;16.94;59.83;96371.88;5019414;28;20037;-67
2023/06/08 00:27:39;;;;;;;10.38;5.05;;;;;;;16.88;59.99;96376.34;5024582;28;20095;-67
2023/06/08 00:30:05;;;;;;;7.07;5.10;;;;;;;16.84;60.28;96378.38;5021042;28;20047;-65
2023/06/08 00:32:30;;;;;;;6.55;4.72;;;;;;;16.78;60.50;96375.22;5023343;28;20070;-67
2023/06/08 00:34:56;;;;;;;7.75;4.78;;;;;;;16.75;60.79;96371.31;5024733;28;20076;-67
2023/06/08 00:37:21;;;;;;;9.48;5.20;;;;;;;16.77;60.60;96374.44;5019642;28;20468;-67
2023/06/08 00:39:49;;;;;;;8.38;5.07;;;;;;;16.80;60.46;96375.63;5023959;28;20041;-67
2023/06/08 00:42:14;;;;;;;6.25;4.47;;;;;;;16.87;60.12;96375.56;5018876;28;20128;-66
2023/06/08 00:44:40;;;;;;;9.00;5.10;;;;;;;16.87;60.28;96375.56;5024296;28;20068;-66
2023/06/08 00:47:05;;;;;;;8.15;5.15;;;;;;;16.85;60.31;96368.84;5017417;28;20315;-67
2023/06/08 00:49:32;;;;;;;7.68;5.20;;;;;;;16.82;60.31;96375.97;5023981;28;20111;-66
2023/06/08 00:52:00;;;;;;;7.72;5.07;;;;;;;16.81;60.11;96374.41;5023390;28;20132;-67
2023/06/08 00:54:30;;;;;;;7.20;4.53;;;;;;;16.75;60.45;96371.31;5017642;28;20195;-67
2023/06/08 00:57:00;;;;;;;7.00;4.97;;;;;;;16.67;60.73;96372.59;5024329;28;20136;-66
2023/06/08 00:59:29;;;;;;;7.13;4.72;;;;;;;16.66;60.96;96367.50;5019209;28;20049;-67
2023/06/08 01:01:57;;;;;;;6.88;4.90;;;;;;;16.62;61.35;96371.09;5023553;28;20414;-67
2023/06/08 01:04:23;;;;;;;6.07;4.53;;;;;;;16.56;62.88;96374.72;5019132;28;20046;-67
2023/06/08 01:06:53;;;;;;;8.45;4.95;;;;;;;16.41;64.50;96371.34;5023214;28;20053;-67
2023/06/08 01:09:24;;;;;;;7.07;4.75;;;;;;;16.29;65.78;96367.16;5018704;28;20498;-67
2023/06/08 01:12:02;;;;;;;9.43;4.93;;;;;;;16.25;65.76;96361.66;5023411;28;20045;-67
2023/06/08 01:14:51;;;;;;;8.13;4.97;;;;;;;16.24;67.93;96357.34;5023076;28;20367;-67
2023/06/08 01:17:19;;;;;;;6.97;4.45;;;;;;;16.07;68.35;96354.78;5034819;28;20045;-67
2023/06/08 01:20:07;;;;;;;8.40;4.82;;;;;;;15.69;70.94;96355.50;5023374;28;20120;-67
2023/06/08 01:22:56;;;;;;;9.55;4.85;;;;;;;15.47;72.75;96355.69;5022639;28;20099;-67
2023/06/08 01:25:26;;;;;;;8.82;4.90;;;;;;;15.37;72.93;96351.03;5019087;28;20048;-68
2023/06/08 01:27:58;;;;;;;7.25;4.68;;;;;;;15.41;73.19;96351.81;5038728;28;20736;-68
2023/06/08 01:30:25;;;;;;;9.00;4.88;;;;;;;15.59;73.10;96348.09;5019452;28;20041;-67
2023/06/08 01:32:50;;;;;;;7.63;5.10;;;;;;;15.58;73.37;96346.56;5023458;28;20064;-67
2023/06/08 01:35:16;;;;;;;7.22;4.78;;;;;;;15.59;73.65;96348.91;5018990;28;20046;-67
2023/06/08 01:37:54;;;;;;;11.20;4.80;;;;;;;15.49;73.87;96349.78;5023343;28;20060;-67
2023/06/08 01:40:26;;;;;;;7.90;5.28;;;;;;;15.46;74.49;96343.06;5019044;28;20148;-67
2023/06/08 01:42:53;;;;;;;9.00;5.10;;;;;;;15.33;74.89;96347.53;5023393;28;20038;-67
2023/06/08 01:45:23;;;;;;;7.05;4.82;;;;;;;15.25;75.40;96341.31;5019779;28;20073;-67
2023/06/08 01:47:54;;;;;;;;;;;;;;;15.21;74.45;96342.50;5023479;28;20046;-68
2023/06/08 01:50:21;;;;;;;7.15;5.10;;;;;;;15.14;75.41;96332.28;5018202;28;19912;-67
2023/06/08 01:52:47;;;;;;;12.10;5.47;;;;;;;15.08;75.33;96337.47;5022250;28;20046;-67
2023/06/08 01:55:21;;;;;;;6.38;4.93;;;;;;;15.15;76.38;96333.88;5017342;28;20048;-67
2023/06/08 01:57:46;;;;;;;8.75;5.00;;;;;;;15.27;76.61;96338.13;5024418;28;20069;-68
2023/06/08 02:00:14;;;;;;;9.45;5.32;;;;;;;15.32;76.81;96337.69;5022375;28;20517;-67
2023/06/08 02:02:40;;;;;;;7.50;4.80;;;;;;;15.43;76.38;96340.34;5022956;28;20048;-67
2023/06/08 02:05:10;;;;;;;8.48;5.43;;;;;;;15.39;76.30;96347.88;5017657;28;20045;-67
2023/06/08 02:07:37;;;;;;;7.60;5.47;;;;;;;15.33;76.49;96346.75;5021989;28;20128;-67
2023/06/08 02:10:07;;;;;;;10.85;5.32;;;;;;;15.18;76.54;96351.59;5020796;28;20045;-67
2023/06/08 02:12:33;;;;;;;7.45;5.38;;;;;;;15.14;77.56;96350.84;5022552;28;20075;-66
2023/06/08 02:14:58;;;;;;;10.15;5.53;;;;;;;15.09;77.66;96358.34;5022771;28;20430;-66
2023/06/08 02:17:27;;;;;;;7.35;5.10;;;;;;;15.10;77.37;96354.38;5016904;28;20134;-66
2023/06/08 02:19:53;;;;;;;10.00;5.30;;;;;;;14.94;77.62;96354.09;5022075;28;20042;-68
2023/06/08 02:22:19;;;;;;;7.25;5.25;;;;;;;14.90;78.93;96356.88;5017529;28;20048;-68
2023/06/08 02:24:45;;;;;;;8.20;5.45;;;;;;;14.88;79.72;96356.50;5022660;28;20042;-68
2023/06/08 02:27:11;;;;;;;8.27;5.10;;;;;;;14.83;80.13;96348.66;5018874;28;20060;-67
2023/06/08 02:29:36;;;;;;;7.75;4.85;;;;;;;14.88;80.80;96352.97;5024239;28;20045;-68
2023/06/08 02:32:02;;;;;;;8.25;5.18;;;;;;;14.98;80.92;96357.66;5022139;28;20395;-62
2023/06/08 02:34:28;;;;;;;7.30;5.18;;;;;;;14.98;80.83;96362.34;5020401;28;20479;-68
2023/06/08 02:36:53;;;;;;;12.35;5.68;;;;;;;14.92;81.34;96362.00;5024227;28;20463;-68
2023/06/08 02:39:18;;;;;;;11.00;4.90;;;;;;;14.77;81.98;96368.81;5017725;28;20045;-68
2023/06/08 02:41:44;;;;;;;9.05;5.47;;;;;;;14.49;83.91;96367.72;5021413;28;20107;-70
2023/06/08 02:44:09;;;;;;;8.05;5.43;;;;;;;14.44;84.70;96363.41;5016797;28;20042;-67
2023/06/08 02:46:36;;;;;;;8.68;4.90;;;;;;;14.38;85.09;96362.25;5021141;28;20506;-68
2023/06/08 02:49:02;;;;;;;9.27;5.78;;;;;;;13.95;87.31;96363.19;5021654;28;20060;-67
2023/06/08 02:51:27;;;;;;;10.50;5.82;;;;;;;13.44;91.67;96363.63;5019015;28;20041;-68
2023/06/08 02:53:52;;;;;;;10.25;6.38;;;;;;;13.04;95.84;96365.56;5036548;28;20129;-68
2023/06/08 02:56:18;;;;;;;8.70;5.95;;;;;;;13.03;95.87;96352.97;5017323;28;20041;-68
2023/06/08 02:58:46;;;;;;;9.48;5.28;;;;;;;13.35;95.26;96358.53;5021849;28;20050;-68
2023/06/08 03:01:15;;;;;;;10.02;5.63;;;;;;;13.56;93.73;96358.53;5017270;28;20045;-68
2023/06/08 03:03:42;;;;;;;9.48;6.05;;;;;;;13.64;93.21;96353.78;5021793;28;20045;-67
2023/06/08 03:06:09;;;;;;;10.60;5.90;;;;;;;13.72;93.14;96354.56;5017193;28;20049;-67
2023/06/08 03:08:36;;;;;;;7.63;5.38;;;;;;;13.76;92.44;96355.34;5021696;28;20060;-68
2023/06/08 03:11:02;;;;;;;9.10;5.50;;;;;;;13.80;92.53;96355.34;5021594;28;20045;-67
2023/06/08 03:13:27;;;;;;;9.60;6.05;;;;;;;13.93;91.46;96357.25;5018294;28;20045;-67
2023/06/08 03:15:53;;;;;;;10.55;5.93;;;;;;;14.03;90.66;96365.91;5002621;28;20048;-67
2023/06/08 03:18:18;;;;;;;10.32;5.82;;;;;;;13.99;90.76;96354.09;5018151;28;20414;-67
2023/06/08 03:20:47;;;;;;;9.50;6.15;;;;;;;13.95;91.34;96357.69;5023080;28;20057;-67
2023/06/08 03:23:13;;;;;;;7.70;5.90;;;;;;;13.96;91.54;96361.22;5017291;28;20486;-67
2023/06/08 03:25:38;;;;;;;8.43;5.28;;;;;;;13.91;91.14;96359.63;5021335;28;20041;-67
2023/06/08 03:28:04;;;;;;;9.85;5.50;;;;;;;13.87;91.71;96360.84;5018236;28;20041;-67
2023/06/08 03:30:30;;;;;;;9.10;5.68;;;;;;;13.84;92.20;96359.66;5024295;28;20038;-67
2023/06/08 03:32:56;;;;;;;9.30;6.07;;;;;;;13.82;92.42;96370.28;5025121;28;20499;-68
2023/06/08 03:35:21;;;;;;;7.88;5.90;;;;;;;13.88;92.65;96368.72;5021947;28;20304;-69
2023/06/08 03:37:46;;;;;;;9.95;6.22;;;;;;;13.91;92.04;96362.38;5024770;28;20451;-68
2023/06/08 03:40:12;;;;;;;9.88;6.18;;;;;;;13.92;92.19;96365.94;5026389;28;20483;-69
2023/06/08 03:42:37;;;;;;;7.90;5.43;;;;;;;13.90;92.16;96371.03;5026000;28;20056;-68
2023/06/08 03:45:03;;;;;;;7.93;5.88;;;;;;;13.89;92.49;96369.47;5024387;28;20033;-68
2023/06/08 03:47:31;;;;;;;10.35;6.93;;;;;;;13.85;92.80;96371.47;5027581;28;20068;-67
2023/06/08 03:49:56;;;;;;;9.32;6.00;;;;;;;13.71;92.16;96370.28;5028779;28;20052;-67
2023/06/08 03:52:22;;;;;;;11.73;6.10;;;;;;;13.76;93.59;96371.88;5021844;28;20046;-67
2023/06/08 03:54:47;;;;;;;10.45;6.43;;;;;;;13.79;93.44;96375.78;5028219;28;20041;-67
2023/06/08 03:57:13;;;;;;;9.95;6.50;;;;;;;13.80;93.53;96369.09;5022952;28;20094;-68
2023/06/08 03:59:39;;;;;;;10.35;6.80;;;;;;;13.86;93.23;96379.31;5028598;28;20076;-68
2023/06/08 04:02:04;;;;;;;7.97;6.60;;;;;;;13.91;93.14;96375.38;5023741;28;20048;-67
2023/06/08 04:04:30;;;;;;;7.28;5.75;;;;;;;14.03;92.71;96372.22;5025479;28;20374;-67
2023/06/08 04:07:00;;;;;;;10.52;5.95;;;;;;;14.13;92.10;96379.66;5025381;28;20580;-67
2023/06/08 04:09:29;;;;;;;;;;;;;;;14.14;92.12;96377.69;5020316;28;20392;-67
2023/06/08 04:11:56;;;;;;;9.87;6.77;;;;;;;14.12;91.40;96369.81;5024092;28;19921;-67
2023/06/08 04:14:23;;;;;;;9.45;6.05;;;;;;;14.12;91.74;96371.78;5017115;28;20592;-66
2023/06/08 04:16:49;;;;;;;10.32;6.20;;;;;;;14.11;91.44;96372.97;5027522;28;20068;-67
2023/06/08 04:19:14;;;;;;;9.65;6.30;;;;;;;14.15;91.13;96373.72;5026007;28;20037;-68
2023/06/08 04:21:40;;;;;;;9.10;5.90;;;;;;;14.20;90.54;96370.56;5027920;28;20494;-68
2023/06/08 04:24:05;;;;;;;14.35;6.20;;;;;;;14.33;90.07;96365.41;5018581;28;20168;-65
2023/06/08 04:26:32;;;;;;;8.07;6.20;;;;;;;14.55;89.24;96368.88;5024841;28;20049;-67
2023/06/08 04:28:58;;;;;;;11.05;6.68;;;;;;;14.73;88.31;96374.34;5027346;28;20649;-67
2023/06/08 04:31:23;;;;;;;9.73;5.90;;;;;;;14.95;87.46;96363.97;5021332;28;20047;-68
2023/06/08 04:33:49;;;;;;;10.43;6.45;;;;;;;15.14;85.92;96370.91;5025115;28;20045;-68
2023/06/08 04:36:14;;;;;;;8.88;6.45;;;;;;;15.39;84.46;96378.22;5021083;28;20512;-69
2023/06/08 04:38:41;;;;;;;9.57;6.07;;;;;;;15.54;83.83;96373.38;5025757;28;20041;-69
2023/06/08 04:41:07;;;;;;;12.32;5.60;;;;;;;15.54;83.96;96379.69;5011130;28;20197;-69
2023/06/08 04:43:36;;;;;;;10.43;5.78;;;;;;;15.67;83.62;96377.22;5038438;28;20386;-68
2023/06/08 04:46:04;;;;;;;12.13;5.93;;;;;;;16.02;82.19;96378.88;5021326;28;20068;-68
2023/06/08 04:48:33;;;;;;;8.93;6.38;;;;;;;16.95;78.83;96390.84;5024460;28;20277;-68
2023/06/08 04:51:01;;;;;;;8.10;5.65;;;;;;;18.55;69.23;96385.03;5025103;28;20034;-68
2023/06/08 04:53:27;;;;;;;8.45;5.30;;;;;;;19.91;61.65;96383.19;5018862;28;20052;-68
2023/06/08 04:56:01;;;;;;;7.43;4.50;;;;;;;21.13;55.32;96388.94;5024845;28;20037;-68
2023/06/08 04:58:27;;;;;;;10.13;5.38;;;;;;;22.01;52.58;96391.34;5018928;28;20037;-68
2023/06/08 05:00:53;;;;;;;13.48;4.82;;;;;;;22.58;50.76;96387.81;5022530;28;20048;-66
2023/06/08 05:03:20;;;;;;;9.40;4.95;;;;;;;23.09;48.94;96387.53;5019438;28;20048;-69
2023/06/08 05:05:46;;;;;;;9.32;4.60;;;;;;;23.66;47.55;96384.53;5024902;28;20047;-68
2023/06/08 05:08:11;;;;;;;8.93;4.53;;;;;;;24.19;45.84;96389.13;5018851;28;20120;-68
2023/06/08 05:10:39;;;;;;;6.18;4.25;;;;;;;24.91;44.26;96386.00;5024331;28;20129;-67
2023/06/08 05:13:04;;;;;;;7.93;4.40;;;;;;;25.78;41.88;96391.94;5019666;28;20363;-69
2023/06/08 05:15:33;;;;;;;7.53;4.90;;;;;;;26.30;40.28;96400.97;5023950;28;20045;-67
2023/06/08 05:17:59;;;;;;;7.45;4.25;;;;;;;26.52;39.59;96402.66;5025626;28;20042;-66
2023/06/08 05:20:25;;;;;;;6.47;4.30;;;;;;;26.60;39.34;96400.28;5020681;28;20475;-66
2023/06/08 05:22:52;;;;;;;5.72;4.40;;;;;;;27.17;38.05;96399.28;5022883;28;20034;-66
2023/06/08 05:25:17;;;;;;;7.55;4.63;;;;;;;27.91;36.83;96393.59;5018784;28;20132;-67
2023/06/08 05:27:43;;;;;;;7.13;4.40;;;;;;;28.53;35.68;96393.56;5023649;28;20132;-67
2023/06/08 05:30:09;;;;;;;7.90;4.63;;;;;;;26.56;37.76;96400.47;5018606;28;20037;-65
2023/06/08 05:32:34;;;;;;;8.20;4.20;;;;;;;26.11;38.45;96400.34;5022667;28;20048;-66
2023/06/08 05:35:00;;;;;;;6.40;4.15;;;;;;;26.65;38.98;96403.22;5023106;28;20045;-68
2023/06/08 05:37:26;;;;;;;8.60;4.13;;;;;;;27.69;37.00;96405.25;5018127;28;20045;-66
2023/06/08 05:39:51;;;;;;;5.68;4.20;;;;;;;27.54;35.83;96404.50;5020132;28;20064;-66
2023/06/08 05:42:17;;;;;;;6.57;4.03;;;;;;;24.39;40.73;96399.88;5017687;28;20033;-64
2023/06/08 05:44:43;;;;;;;8.68;4.00;;;;;;;24.75;41.23;96393.50;5022432;28;20037;-67
2023/06/08 05:47:09;;;;;;;9.77;4.78;;;;;;;22.24;47.54;96395.75;5018760;28;20466;-65
2023/06/08 05:49:34;;;;;;;6.60;4.30;;;;;;;22.43;47.35;96398.72;5022626;28;20136;-68
2023/06/08 05:52:00;;;;;;;6.85;4.40;;;;;;;22.57;47.83;96395.41;5022216;28;20041;-70
2023/06/08 05:54:25;;;;;;;10.30;4.82;;;;;;;22.29;49.15;96395.19;5018458;28;20046;-64
2023/06/08 05:56:51;;;;;;;9.07;4.80;;;;;;;20.21;56.20;96387.56;5023654;28;20079;-67
2023/06/08 05:59:16;;;;;;;9.63;4.70;;;;;;;20.90;55.44;96398.38;5010646;28;20425;-65
2023/06/08 06:01:42;;;;;;;9.55;5.18;;;;;;;21.46;54.14;96393.53;5022742;28;20136;-63
2023/06/08 06:04:10;;;;;;;14.30;5.18;;;;;;;22.32;52.05;96390.72;5015776;28;20041;-70
2023/06/08 06:06:36;;;;;;;6.75;4.88;;;;;;;23.02;49.61;96382.19;5022292;28;20047;-66
2023/06/08 06:09:02;;;;;;;9.23;5.53;;;;;;;21.83;52.00;96389.16;5022205;28;20562;-71
2023/06/08 06:11:28;;;;;;;8.60;5.43;;;;;;;21.03;55.71;96386.47;5019092;28;20068;-65
2023/06/08 06:13:53;;;;;;;8.82;4.82;;;;;;;21.67;54.00;96389.31;5021979;28;20068;-66
2023/06/08 06:16:19;;;;;;;8.73;5.38;;;;;;;20.91;56.85;96388.03;5018915;28;20033;-64
2023/06/08 06:18:46;;;;;;;7.20;5.47;;;;;;;20.89;57.41;96393.28;5021326;28;20045;-65
2023/06/08 06:21:13;;;;;;;9.05;5.75;;;;;;;20.52;59.05;96392.69;5018789;28;20041;-68
2023/06/08 06:23:38;;;;;;;9.23;6.30;;;;;;;20.58;58.64;96390.91;5023940;28;20069;-66
2023/06/08 06:26:05;;;;;;;8.35;5.80;;;;;;;21.76;55.11;96395.75;5019601;28;20115;-70
2023/06/08 06:28:33;;;;;;;8.60;5.57;;;;;;;22.04;53.21;96396.03;5022712;28;20041;-67
2023/06/08 06:30:59;;;;;;;9.82;5.82;;;;;;;21.52;55.53;96391.78;5022343;28;20041;-66
2023/06/08 06:33:24;;;;;;;14.68;5.97;;;;;;;21.42;56.29;96399.19;5016489;28;20048;-66
2023/06/08 06:35:50;;;;;;;8.73;6.18;;;;;;;21.32;56.26;96403.09;5022690;28;20433;-68
2023/06/08 06:38:16;;;;;;;9.57;6.50;;;;;;;22.62;51.96;96405.22;5023691;28;20053;-67
2023/06/08 06:40:41;;;;;;;8.15;5.13;;;;;;;25.73;44.94;96398.19;5022015;28;20561;-63
2023/06/08 06:43:07;;;;;;;5.93;4.70;;;;;;;27.14;41.44;96405.88;5017478;28;20410;-67
2023/06/08 06:45:33;;;;;;;8.82;5.00;;;;;;;26.28;42.67;96406.28;5021952;28;20037;-66
2023/06/08 06:47:58;;;;;;;7.25;4.93;;;;;;;26.38;40.77;96406.22;5022204;28;20044;-68
2023/06/08 06:50:24;;;;;;;6.95;5.30;;;;;;;25.96;42.08;96404.34;5019512;28;20826;-65
2023/06/08 06:52:49;;;;;;;6.25;5.20;;;;;;;28.05;38.93;96396.81;5025467;28;20061;-65
2023/06/08 06:55:14;;;;;;;8.90;5.07;;;;;;;24.42;44.74;96407.34;5018598;28;20045;-70
2023/06/08 06:57:40;;;;;;;7.95;5.18;;;;;;;23.61;47.93;96404.69;5022877;28;20038;-66
2023/06/08 07:00:10;;;;;;;7.53;5.43;;;;;;;23.92;47.11;96396.25;5016988;28;20053;-67
2023/06/08 07:02:37;;;;;;;7.88;5.57;;;;;;;26.24;41.68;96404.94;5022048;28;20048;-67
2023/06/08 07:05:07;;;;;;;8.00;5.53;;;;;;;26.55;41.18;96410.16;5019295;28;20094;-72
2023/06/08 07:07:32;;;;;;;;;;;;;;;26.64;40.92;96420.56;5022094;28;20130;-66
2023/06/08 07:09:58;;;;;;;8.77;4.95;;;;;;;25.21;44.02;96414.25;5021565;28;19913;-66
2023/06/08 07:12:23;;;;;;;10.15;5.75;;;;;;;24.68;45.65;96412.66;5016121;28;20949;-68
2023/06/08 07:14:49;;;;;;;6.95;4.43;;;;;;;26.14;43.03;96415.44;5021953;28;20049;-66
2023/06/08 07:17:14;;;;;;;8.73;4.72;;;;;;;25.82;43.58;96411.38;5016256;28;20045;-66
2023/06/08 07:19:41;;;;;;;7.70;5.40;;;;;;;25.87;42.99;96413.53;5021740;28;20033;-68
2023/06/08 07:22:07;;;;;;;9.13;4.88;;;;;;;26.50;41.36;96413.63;5016182;28;20081;-67
2023/06/08 07:24:32;;;;;;;8.25;4.65;;;;;;;28.26;38.75;96418.09;5022245;28;20123;-67
2023/06/08 07:26:57;;;;;;;7.15;4.80;;;;;;;29.88;34.95;96416.63;5021618;28;20046;-69
2023/06/08 07:29:25;;;;;;;6.30;4.60;;;;;;;26.52;40.21;96422.31;5007706;28;20052;-66
2023/06/08 07:31:50;;;;;;;9.85;4.47;;;;;;;28.27;37.81;96421.66;5021007;28;20119;-68
2023/06/08 07:34:16;;;;;;;9.02;5.38;;;;;;;27.04;39.33;96417.19;5015756;28;20076;-68
2023/06/08 07:36:42;;;;;;;6.82;5.10;;;;;;;24.88;43.16;96412.91;5024610;28;20534;-70
2023/06/08 07:39:08;;;;;;;5.90;4.65;;;;;;;27.20;40.27;96413.13;5017262;28;20483;-67
2023/06/08 07:41:34;;;;;;;6.13;4.80;;;;;;;28.09;37.61;96411.44;5022855;28;20041;-67
2023/06/08 07:43:59;;;;;;;8.50;5.28;;;;;;;28.74;36.17;96411.25;5021220;28;20429;-67
2023/06/08 07:46:25;;;;;;;9.32;4.78;;;;;;;29.38;35.15;96400.84;5016770;28;20447;-67
2023/06/08 07:48:50;;;;;;;8.82;4.60;;;;;;;29.60;34.42;96410.75;5022413;28;20442;-67
2023/06/08 07:51:16;;;;;;;7.30;4.45;;;;;;;30.60;33.02;96406.22;5017300;28;20056;-69
2023/06/08 07:53:41;;;;;;;6.53;3.97;;;;;;;31.51;30.80;96413.63;5020862;28;20049;-67
2023/06/08 07:56:07;;;;;;;7.93;4.38;;;;;;;31.61;30.85;96426.22;5016983;28;20904;-71
2023/06/08 07:58:33;;;;;;;7.53;4.80;;;;;;;27.14;37.88;96420.72;5022858;28;20045;-67
2023/06/08 08:00:59;;;;;;;7.43;4.50;;;;;;;27.29;37.37;96409.47;5018768;28;20041;-67
2023/06/08 08:03:25;;;;;;;7.82;4.63;;;;;;;25.77;40.18;96415.63;5016759;28;20657;-68
2023/06/08 08:05:51;;;;;;;7.10;4.20;;;;;;;27.79;37.70;96415.13;5020353;28;20052;-66
2023/06/08 08:08:16;;;;;;;7.32;4.35;;;;;;;29.24;35.13;96410.22;5015332;28;20042;-66
2023/06/08 08:10:42;;;;;;;7.05;4.63;;;;;;;27.69;37.52;96419.31;5021363;28;20037;-68
2023/06/08 08:13:08;;;;;;;7.50;4.45;;;;;;;27.70;36.54;96414.47;5016110;28;20486;-68
2023/06/08 08:15:36;;;;;;;9.63;4.43;;;;;;;26.31;39.76;96419.38;5029249;28;20042;-67
2023/06/08 08:18:04;;;;;;;8.77;4.88;;;;;;;27.88;37.82;96410.66;5025265;28;20080;-68
2023/06/08 08:20:30;;;;;;;6.60;5.10;;;;;;;28.17;36.78;96413.38;5022779;28;20041;-67
2023/06/08 08:22:55;;;;;;;6.63;4.95;;;;;;;28.60;36.92;96410.84;5022407;28;20088;-67
2023/06/08 08:25:21;;;;;;;7.35;4.70;;;;;;;28.83;35.38;96407.50;5018915;28;20038;-66
2023/06/08 08:27:47;;;;;;;7.45;4.82;;;;;;;28.86;36.61;96400.88;5024624;28;20068;-66
2023/06/08 08:30:14;;;;;;;9.50;4.70;;;;;;;29.46;36.46;96399.13;5019709;28;20116;-66
2023/06/08 08:32:39;;;;;;;7.60;4.97;;;;;;;29.44;36.94;96406.53;5024146;28;20041;-66
2023/06/08 08:35:05;;;;;;;10.48;5.72;;;;;;;29.59;37.26;96401.53;5019947;28;20486;-67
2023/06/08 08:37:31;;;;;;;7.78;5.03;;;;;;;29.51;36.93;96404.06;5024884;28;20486;-67
2023/06/08 08:39:57;;;;;;;6.85;5.55;;;;;;;28.66;37.62;96408.09;5024057;28;20414;-66
2023/06/08 08:42:26;;;;;;;7.72;5.88;;;;;;;28.59;38.44;96395.22;5021581;28;20445;-67
2023/06/08 08:44:56;;;;;;;9.02;5.88;;;;;;;28.48;38.33;96402.72;5024796;28;20132;-67
2023/06/08 08:47:23;;;;;;;7.55;5.75;;;;;;;28.48;38.84;96395.06;5019733;28;20495;-68
2023/06/08 08:50:06;;;;;;;9.43;5.28;;;;;;;28.52;38.49;96406.09;5024679;28;20078;-67
2023/06/08 08:52:37;;;;;;;6.43;5.15;;;;;;;28.52;37.82;96398.44;5022863;28;20045;-66
2023/06/08 08:55:05;;;;;;;6.97;5.07;;;;;;;28.97;36.93;96401.75;5010326;28;20033;-68
2023/06/08 08:57:31;;;;;;;8.00;5.40;;;;;;;26.92;39.96;96407.03;5024279;28;20041;-66
2023/06/08 08:59:58;;;;;;;7.63;5.13;;;;;;;28.13;38.97;96398.72;5024046;28;20132;-67
2023/06/08 09:02:24;;;;;;;11.73;5.22;;;;;;;28.56;37.73;96398.25;5018820;28;20988;-67
2023/06/08 09:04:52;;;;;;;7.88;4.90;;;;;;;28.86;37.58;96396.00;5023818;28;20034;-67
2023/06/08 09:07:21;;;;;;;6.72;4.47;;;;;;;29.07;36.73;96396.72;5018578;28;20053;-67
2023/06/08 09:10:19;;;;;;;6.80;5.10;;;;;;;29.14;36.58;96393.47;5023668;28;20049;-67
2023/06/08 09:12:47;;;;;;;8.63;4.55;;;;;;;29.13;35.86;96389.06;5022645;28;20560;-67
2023/06/08 09:15:23;;;;;;;36.22;26.48;;;;;;;29.10;35.88;96392.91;5019320;28;20057;-66
2023/06/08 09:17:48;;;;;;;6.13;4.68;;;;;;;29.16;35.31;96395.81;5018545;28;20441;-66
2023/06/08 09:20:14;;;;;;;5.20;4.40;;;;;;;29.27;35.87;96389.50;5019378;28;20033;-66
2023/06/08 09:22:39;;;;;;;7.13;4.85;;;;;;;28.47;38.37;96385.06;5022817;28;20393;-67
2023/06/08 09:25:06;;;;;;;7.80;5.32;;;;;;;28.96;36.87;96388.94;5017531;28;20046;-65
2023/06/08 09:27:32;;;;;;;7.43;5.22;;;;;;;28.78;37.14;96381.59;5022476;28;20655;-66
2023/06/08 09:29:59;;;;;;;6.18;4.82;;;;;;;29.01;36.18;96389.47;5022471;28;20049;-67
2023/06/08 09:32:32;;;;;;;6.35;5.00;;;;;;;28.87;36.79;96375.00;5018420;28;20392;-67
2023/06/08 09:35:04;;;;;;;7.05;5.57;;;;;;;28.71;37.99;96379.19;5022585;28;20045;-68
2023/06/08 09:37:32;;;;;;;6.18;4.70;;;;;;;28.33;38.23;96375.44;5022199;28;20040;-67
2023/06/08 09:40:00;;;;;;;7.37;5.77;;;;;;;28.18;38.85;96383.16;5024695;28;20218;-67
2023/06/08 09:42:50;;;;;;;8.18;5.38;;;;;;;28.32;38.76;96368.22;5019399;28;20042;-67
2023/06/08 09:45:16;;;;;;;6.72;4.57;;;;;;;28.58;36.43;96370.38;5017468;28;20029;-67
2023/06/08 09:47:42;;;;;;;6.53;4.80;;;;;;;28.93;36.07;96366.59;5028752;28;20090;-68
2023/06/08 09:50:10;;;;;;;7.90;5.05;;;;;;;26.15;40.07;96360.09;5020024;28;20064;-69
2023/06/08 09:52:37;;;;;;;8.88;5.50;;;;;;;25.00;42.60;96364.34;5027086;28;20422;-68
2023/06/08 09:55:03;;;;;;;6.53;4.55;;;;;;;26.50;40.06;96363.84;5020853;28;20045;-67
2023/06/08 09:57:34;;;;;;;8.75;4.65;;;;;;;27.51;37.06;96354.84;5022075;28;20039;-67
2023/06/08 10:00:14;;;;;;;7.25;5.03;;;;;;;28.27;35.11;96352.06;5024301;28;20041;-67
2023/06/08 10:03:16;;;;;;;6.13;4.30;;;;;;;28.83;36.08;96353.94;5022821;28;20033;-67
2023/06/08 10:05:45;;;;;;;8.02;5.07;;;;;;;29.14;36.10;96347.56;5023020;28;20033;-67
2023/06/08 10:08:14;;;;;;;6.22;4.72;;;;;;;28.33;37.13;96352.13;5016934;28;20499;-67
2023/06/08 10:10:41;;;;;;;7.85;4.82;;;;;;;28.29;35.31;96348.72;5022840;28;20111;-66
2023/06/08 10:13:09;;;;;;;6.00;4.22;;;;;;;28.03;35.94;96347.41;5017871;28;20099;-67
2023/06/08 10:15:35;;;;;;;8.18;4.38;;;;;;;27.70;38.64;96347.72;5023342;28;20076;-67
2023/06/08 10:18:04;;;;;;;6.63;4.90;;;;;;;27.77;38.87;96338.88;5015867;28;20094;-68
2023/06/08 10:20:31;;;;;;;6.90;4.45;;;;;;;27.73;36.08;96338.31;4975089;28;20077;-68
2023/06/08 10:23:00;;;;;;;7.13;4.28;;;;;;;27.77;35.28;96340.91;5035639;23;20042;-68
2023/06/08 10:25:35;;;;;;;8.35;4.43;;;;;;;26.64;37.81;96330.69;5003329;28;20063;-67
2023/06/08 10:28:08;;;;;;;9.88;4.75;;;;;;;27.10;36.72;96330.19;5014748;28;20041;-65
2023/06/08 10:30:40;;;;;;;6.60;4.35;;;;;;;27.49;37.75;96318.78;5022264;28;20065;-67
2023/06/08 10:33:18;;;;;;;11.20;4.68;;;;;;;27.97;35.89;96314.84;5018251;28;20455;-67
2023/06/08 10:36:03;;;;;;;5.80;4.45;;;;;;;28.53;35.06;96320.34;5013226;28;20371;-67
2023/06/08 10:38:33;;;;;;;6.32;3.97;;;;;;;28.69;33.36;96311.31;4991456;28;20390;-68
2023/06/08 10:40:59;;;;;;;5.40;3.95;;;;;;;28.96;32.73;96312.06;5022945;28;20546;-68
2023/06/08 10:43:30;;;;;;;7.97;4.10;;;;;;;29.16;31.45;96305.56;5011846;28;20136;-69
2023/06/08 10:45:59;;;;;;;7.85;3.88;;;;;;;29.53;30.83;96305.56;5027383;28;20044;-69
2023/06/08 10:48:36;;;;;;;9.48;4.32;;;;;;;29.65;31.46;96300.75;5019050;28;20152;-68
2023/06/08 10:51:04;;;;;;;9.23;4.45;;;;;;;29.65;32.76;96297.16;5023687;28;20053;-67
2023/06/08 10:53:56;;;;;;;5.93;4.30;;;;;;;29.77;32.79;96298.03;5020673;28;20610;-68
2023/06/08 10:56:28;;;;;;;5.82;4.15;;;;;;;29.55;33.25;96305.06;5017539;28;20626;-68
2023/06/08 10:58:54;;;;;;;5.90;3.95;;;;;;;28.67;31.31;96296.94;5021731;28;20519;-68
2023/06/08 11:01:20;;;;;;;5.90;3.80;;;;;;;29.44;27.70;96294.50;5016907;28;20056;-66
2023/06/08 11:03:48;;;;;;;5.28;3.88;;;;;;;29.95;28.07;96291.19;5026748;28;20033;-67
2023/06/08 11:06:14;;;;;;;5.55;3.72;;;;;;;30.15;27.00;96291.00;5015359;28;20034;-67
2023/06/08 11:08:40;;;;;;;5.53;3.90;;;;;;;29.41;28.89;96289.84;5020911;28;20049;-67
2023/06/08 11:11:05;;;;;;;5.05;3.70;;;;;;;27.56;31.68;96287.44;5017789;28;20041;-67
2023/06/08 11:13:31;;;;;;;6.15;4.35;;;;;;;28.46;33.05;96284.94;5019636;28;20046;-66
2023/06/08 11:15:56;;;;;;;7.80;4.40;;;;;;;28.44;32.98;96275.44;5021782;28;20550;-68
2023/06/08 11:18:29;;;;;;;6.63;4.18;;;;;;;28.14;35.38;96267.94;5015828;28;20613;-68
2023/06/08 11:20:58;;;;;;;7.43;4.22;;;;;;;28.57;35.85;96273.03;5022768;28;20037;-66
2023/06/08 11:23:25;;;;;;;9.48;4.63;;;;;;;27.57;38.16;96272.13;5017312;28;20438;-69
2023/06/08 11:25:51;;;;;;;8.75;4.82;;;;;;;27.70;37.65;96271.00;5022395;28;20041;-68
2023/06/08 11:28:17;;;;;;;6.10;4.72;;;;;;;28.09;35.83;96265.06;5021637;28;20131;-67
2023/06/08 11:30:42;;;;;;;7.72;4.68;;;;;;;28.11;36.46;96257.69;5022013;28;20073;-68
2023/06/08 11:33:17;;;;;;;6.68;4.50;;;;;;;28.41;36.73;96260.28;5006621;28;20045;-65
2023/06/08 11:35:43;;;;;;;9.52;4.50;;;;;;;28.69;34.24;96254.94;5020278;28;20052;-67